createdAt,value
2019-03-24T00:03:22.117Z,99078.84
2019-03-24T00:07:27.027Z,99074.50
2019-03-24T00:11:31.921Z,99069.35
2019-03-24T00:15:36.822Z,99063.73
2019-03-24T00:19:41.805Z,99057.70
2019-03-24T00:23:46.706Z,99061.19
2019-03-24T00:27:51.618Z,99060.33
2019-03-24T00:31:56.511Z,99050.34
2019-03-24T00:36:01.412Z,99049.08
2019-03-24T00:40:09.609Z,99052.52
2019-03-24T00:44:14.512Z,99048.66
2019-03-24T00:48:19.417Z,99040.46
2019-03-24T00:52:24.308Z,99036.12
2019-03-24T00:56:29.207Z,99033.55
2019-03-24T01:00:43.233Z,99030.09
2019-03-24T01:04:48.132Z,99030.53
2019-03-24T01:08:53.039Z,99026.64
2019-03-24T01:12:57.941Z,99024.02
2019-03-24T01:17:02.843Z,99026.63
2019-03-24T01:21:07.750Z,99025.77
2019-03-24T01:25:12.793Z,99027.06
2019-03-24T01:29:17.691Z,99012.37
2019-03-24T01:33:22.589Z,99021.88
2019-03-24T01:37:27.493Z,99022.72
2019-03-24T01:41:32.395Z,99014.09
2019-03-24T01:45:37.300Z,99018.42
2019-03-24T01:49:42.197Z,99014.52
2019-03-24T01:53:47.086Z,99011.92
2019-03-24T01:57:51.988Z,99010.63
2019-03-24T02:01:56.893Z,99006.31
2019-03-24T02:06:01.803Z,99006.31
2019-03-24T02:10:10.338Z,99005.88
2019-03-24T02:14:15.177Z,99001.53
2019-03-24T02:18:20.084Z,99003.69
2019-03-24T02:22:24.995Z,98988.99
2019-03-24T02:26:29.888Z,98990.30
2019-03-24T02:30:34.800Z,98986.83
2019-03-24T02:34:39.769Z,98984.24
2019-03-24T02:38:44.673Z,98992.45
2019-03-24T02:42:49.579Z,98987.30
2019-03-24T02:46:54.519Z,98981.67
2019-03-24T02:50:59.384Z,98980.37
2019-03-24T02:55:06.428Z,98979.06
2019-03-24T02:59:11.329Z,98983.82
2019-03-24T03:03:16.235Z,98971.28
2019-03-24T03:07:21.152Z,98963.93
2019-03-24T03:11:26.049Z,98966.09
2019-03-24T03:15:30.959Z,98960.88
2019-03-24T03:19:35.865Z,98969.94
2019-03-24T03:23:40.773Z,98968.62
2019-03-24T03:27:45.687Z,98961.29
2019-03-24T03:31:50.582Z,98964.75
2019-03-24T03:35:55.479Z,98952.25
2019-03-24T03:40:00.845Z,98950.13
2019-03-24T03:44:05.876Z,98946.23
2019-03-24T03:48:10.772Z,98954.86
2019-03-24T03:52:15.685Z,98958.33
2019-03-24T03:56:20.577Z,98959.63
2019-03-24T04:00:34.187Z,98950.11
2019-03-24T04:04:40.158Z,98953.12
2019-03-24T04:08:45.062Z,98955.75
2019-03-24T04:12:49.974Z,98947.52
2019-03-24T04:17:06.281Z,98951.38
2019-03-24T04:21:01.465Z,98947.88
2019-03-24T04:25:07.107Z,98947.00
2019-03-24T04:29:12.019Z,98940.89
2019-03-24T04:33:16.930Z,98945.12
2019-03-24T04:37:21.822Z,98936.38
2019-03-24T04:41:26.742Z,98924.11
2019-03-24T04:45:31.627Z,98923.59
2019-03-24T04:49:36.554Z,98915.23
2019-03-24T04:53:41.445Z,98912.51
2019-03-24T04:57:46.348Z,98919.72
2019-03-24T05:01:51.255Z,98923.10
2019-03-24T05:05:56.327Z,98908.66
2019-03-24T05:10:01.234Z,98913.33
2019-03-24T05:14:06.129Z,98903.27
2019-03-24T05:18:11.033Z,98911.02
2019-03-24T05:22:15.941Z,98910.11
2019-03-24T05:26:20.849Z,98917.85
2019-03-24T05:30:25.756Z,98909.12
2019-03-24T05:34:30.652Z,98914.23
2019-03-24T05:38:35.558Z,98916.77
2019-03-24T05:42:40.465Z,98918.02
2019-03-24T05:46:45.442Z,98914.00
2019-03-24T05:50:50.339Z,98917.38
2019-03-24T05:54:55.232Z,98913.02
2019-03-24T05:59:00.136Z,98919.91
2019-03-24T06:03:05.040Z,98919.36
2019-03-24T06:07:09.949Z,98917.97
2019-03-24T06:11:14.860Z,98916.93
2019-03-24T06:15:19.763Z,98915.50
2019-03-24T06:19:24.656Z,98923.23
2019-03-24T06:23:29.556Z,98916.52
2019-03-24T06:27:34.466Z,98914.66
2019-03-24T06:31:39.366Z,98917.16
2019-03-24T06:35:44.261Z,98917.37
2019-03-24T06:39:49.173Z,98919.75
2019-03-24T06:43:54.096Z,98923.06
2019-03-24T06:47:59.001Z,98923.03
2019-03-24T06:52:03.976Z,98930.36
2019-03-24T06:56:08.860Z,98922.02
2019-03-24T07:00:14.002Z,98923.23
2019-03-24T07:04:18.906Z,98921.69
2019-03-24T07:08:23.813Z,98927.30
2019-03-24T07:12:28.727Z,98928.48
2019-03-24T07:16:33.620Z,98928.23
2019-03-24T07:20:38.533Z,98924.20
2019-03-24T07:24:43.436Z,98931.70
2019-03-24T07:28:48.345Z,98929.97
2019-03-24T07:32:53.315Z,98917.78
2019-03-24T07:36:58.218Z,98925.75
2019-03-24T07:41:03.118Z,98931.27
2019-03-24T07:45:08.464Z,98930.25
2019-03-24T07:49:14.386Z,98936.78
2019-03-24T07:53:19.322Z,98937.81
2019-03-24T07:57:24.215Z,98931.38
2019-03-24T08:01:29.135Z,98928.02
2019-03-24T08:05:34.110Z,98921.08
2019-03-24T08:09:39.015Z,98920.62
2019-03-24T08:13:53.310Z,98914.16
2019-03-24T08:17:50.500Z,98909.17
2019-03-24T08:21:55.405Z,98907.28
2019-03-24T08:26:00.316Z,98904.77
2019-03-24T08:30:07.258Z,98889.75
2019-03-24T08:34:12.161Z,98882.80
2019-03-24T08:38:17.131Z,98877.52
2019-03-24T08:42:22.039Z,98875.80
2019-03-24T08:46:26.946Z,98872.33
2019-03-24T08:50:31.872Z,98870.72
2019-03-24T08:54:36.781Z,98865.59
2019-03-24T08:58:41.686Z,98859.30
2019-03-24T09:02:46.593Z,98861.78
2019-03-24T09:06:52.328Z,98864.61
2019-03-24T09:10:57.246Z,98863.02
2019-03-24T09:15:02.164Z,98861.92
2019-03-24T09:19:07.067Z,98858.08
2019-03-24T09:23:11.982Z,98856.59
2019-03-24T09:27:16.889Z,98846.78
2019-03-24T09:31:22.767Z,98846.89
2019-03-24T09:35:27.705Z,98843.78
2019-03-24T09:39:33.676Z,98846.14
2019-03-24T09:43:38.590Z,98846.92
2019-03-24T09:47:43.501Z,98846.41
2019-03-24T09:51:48.412Z,98838.54
2019-03-24T09:55:53.320Z,98824.80
2019-03-24T09:59:58.217Z,98828.56
2019-03-24T10:04:03.141Z,98822.09
2019-03-24T10:08:08.054Z,98820.30
2019-03-24T10:12:12.967Z,98806.73
2019-03-24T10:16:17.870Z,98810.55
2019-03-24T10:20:22.774Z,98804.21
2019-03-24T10:24:27.683Z,98802.45
2019-03-24T10:28:32.600Z,98790.06
2019-03-24T10:32:37.519Z,98786.43
2019-03-24T10:36:42.417Z,98778.67
2019-03-24T10:40:47.326Z,98776.81
2019-03-24T10:44:52.239Z,98774.74
2019-03-24T10:48:57.147Z,98776.28
2019-03-24T10:53:02.631Z,98777.58
2019-03-24T10:57:07.543Z,98774.16
2019-03-24T11:01:12.444Z,98769.08
2019-03-24T11:05:17.363Z,98766.50
2019-03-24T11:09:22.275Z,98764.98
2019-03-24T11:13:27.189Z,98757.72
2019-03-24T11:17:32.094Z,98756.59
2019-03-24T11:21:36.995Z,98765.16
2019-03-24T11:25:41.909Z,98767.44
2019-03-24T11:29:46.812Z,98758.05
2019-03-24T11:33:51.726Z,98762.62
2019-03-24T11:37:56.627Z,98753.31
2019-03-24T11:42:02.510Z,98759.02
2019-03-24T11:46:07.417Z,98750.34
2019-03-24T11:50:12.667Z,98747.48
2019-03-24T11:54:17.582Z,98750.23
2019-03-24T11:58:23.568Z,98740.98
2019-03-24T12:02:28.467Z,98745.20
2019-03-24T12:06:33.379Z,98742.62
2019-03-24T12:10:38.434Z,98745.34
2019-03-24T12:14:43.342Z,98734.26
2019-03-24T12:18:48.254Z,98729.09
2019-03-24T12:22:53.160Z,98723.03
2019-03-24T12:26:59.149Z,98716.07
2019-03-24T12:31:04.061Z,98708.64
2019-03-24T12:35:09.391Z,98714.33
2019-03-24T12:39:14.305Z,98711.58
2019-03-24T12:43:19.964Z,98702.84
2019-03-24T12:47:24.908Z,98700.82
2019-03-24T12:51:29.821Z,98700.82
2019-03-24T12:55:34.730Z,98695.91
2019-03-24T12:59:39.642Z,98694.17
2019-03-24T13:03:44.557Z,98684.78
2019-03-24T13:07:49.478Z,98687.97
2019-03-24T13:11:54.394Z,98684.13
2019-03-24T13:15:59.455Z,98648.17
2019-03-24T13:20:19.578Z,98664.42
2019-03-24T13:24:15.514Z,98671.47
2019-03-24T13:28:20.437Z,98666.43
2019-03-24T13:32:25.338Z,98667.37
2019-03-24T13:36:30.239Z,98665.91
2019-03-24T13:40:35.153Z,98672.23
2019-03-24T13:44:40.063Z,98680.36
2019-03-24T13:48:44.975Z,98666.56
2019-03-24T13:52:49.887Z,98669.88
2019-03-24T13:56:54.792Z,98671.09
2019-03-24T14:00:59.698Z,98669.95
2019-03-24T14:05:04.748Z,98662.98
2019-03-24T14:09:11.135Z,98664.44
2019-03-24T14:13:16.043Z,98657.92
2019-03-24T14:17:20.947Z,98656.70
2019-03-24T14:21:25.858Z,98659.31
2019-03-24T14:25:30.770Z,98664.13
2019-03-24T14:29:35.683Z,98663.72
2019-03-24T14:33:40.593Z,98661.73
2019-03-24T14:37:45.500Z,98658.02
2019-03-24T14:41:50.414Z,98662.39
2019-03-24T14:45:55.325Z,98668.30
2019-03-24T14:50:00.331Z,98664.44
2019-03-24T14:54:05.228Z,98664.03
2019-03-24T14:58:10.131Z,98662.01
2019-03-24T15:02:15.042Z,98664.03
2019-03-24T15:06:19.950Z,98657.97
2019-03-24T15:10:24.864Z,98651.58
2019-03-24T15:14:29.773Z,98650.52
2019-03-24T15:18:34.815Z,98649.45
2019-03-24T15:22:39.726Z,98638.69
2019-03-24T15:26:44.637Z,98640.17
2019-03-24T15:30:49.545Z,98650.14
2019-03-24T15:34:54.459Z,98646.74
2019-03-24T15:38:59.364Z,98644.83
2019-03-24T15:43:04.563Z,98639.84
2019-03-24T15:47:09.566Z,98640.25
2019-03-24T15:51:17.195Z,98642.59
2019-03-24T15:55:21.069Z,98638.54
2019-03-24T15:59:25.949Z,98640.84
2019-03-24T16:03:30.861Z,98640.30
2019-03-24T16:07:35.771Z,98635.35
2019-03-24T16:11:40.677Z,98636.41
2019-03-24T16:15:45.592Z,98637.95
2019-03-24T16:19:50.493Z,98620.71
2019-03-24T16:23:55.401Z,98611.94
2019-03-24T16:28:00.322Z,98611.13
2019-03-24T16:32:05.236Z,98608.17
2019-03-24T16:36:10.146Z,98605.06
2019-03-24T16:40:15.066Z,98604.41
2019-03-24T16:44:19.970Z,98595.59
2019-03-24T16:48:24.873Z,98596.28
2019-03-24T16:52:29.774Z,98595.32
2019-03-24T16:56:34.680Z,98596.05
2019-03-24T17:00:39.590Z,98589.72
2019-03-24T17:04:44.494Z,98586.13
2019-03-24T17:08:49.393Z,98590.46
2019-03-24T17:12:54.291Z,98597.42
2019-03-24T17:16:59.193Z,98587.79
2019-03-24T17:21:04.115Z,98602.34
2019-03-24T17:25:09.346Z,98605.59
2019-03-24T17:29:14.275Z,98604.48
2019-03-24T17:33:19.173Z,98605.91
2019-03-24T17:37:24.088Z,98598.42
2019-03-24T17:41:29.008Z,98604.95
2019-03-24T17:45:34.050Z,98608.77
2019-03-24T17:49:38.953Z,98616.56
2019-03-24T17:53:43.869Z,98616.56
2019-03-24T17:57:48.782Z,98612.91
2019-03-24T18:01:53.682Z,98602.98
2019-03-24T18:05:59.708Z,98608.08
2019-03-24T18:10:05.818Z,98598.30
2019-03-24T18:14:11.801Z,98600.29
2019-03-24T18:18:16.718Z,98600.14
2019-03-24T18:22:22.064Z,98612.08
2019-03-24T18:26:26.974Z,98612.34
2019-03-24T18:30:31.887Z,98618.68
2019-03-24T18:34:36.796Z,98616.31
2019-03-24T18:38:41.691Z,98615.67
2019-03-24T18:42:46.768Z,98628.58
2019-03-24T18:46:51.733Z,98631.52
2019-03-24T18:50:56.624Z,98630.41
2019-03-24T18:55:01.525Z,98630.25
2019-03-24T18:59:06.419Z,98629.59
2019-03-24T19:03:11.320Z,98631.51
2019-03-24T19:07:16.215Z,98630.86
2019-03-24T19:11:21.113Z,98634.69
2019-03-24T19:15:26.080Z,98635.44
2019-03-24T19:19:30.973Z,98636.75
2019-03-24T19:23:35.854Z,98631.42
2019-03-24T19:27:40.786Z,98635.67
2019-03-24T19:31:45.674Z,98641.59
2019-03-24T19:35:50.746Z,98644.74
2019-03-24T19:39:55.716Z,98639.87
2019-03-24T19:44:00.608Z,98642.34
2019-03-24T19:48:05.645Z,98638.38
2019-03-24T19:52:10.541Z,98632.59
2019-03-24T19:56:15.435Z,98637.99
2019-03-24T20:00:20.393Z,98644.27
2019-03-24T20:04:25.273Z,98639.63
2019-03-24T20:08:31.145Z,98631.91
2019-03-24T20:12:36.030Z,98632.48
2019-03-24T20:16:40.933Z,98628.37
2019-03-24T20:20:45.808Z,98629.89
2019-03-24T20:24:50.702Z,98632.67
2019-03-24T20:28:55.596Z,98626.22
2019-03-24T20:33:00.485Z,98627.63
2019-03-24T20:37:05.386Z,98619.16
2019-03-24T20:41:10.272Z,98616.66
2019-03-24T20:45:15.157Z,98622.44
2019-03-24T20:49:20.071Z,98617.75
2019-03-24T20:53:24.950Z,98609.22
2019-03-24T20:57:29.845Z,98606.78
2019-03-24T21:01:34.738Z,98604.47
2019-03-24T21:05:39.700Z,98605.45
2019-03-24T21:09:46.604Z,98597.93
2019-03-24T21:13:51.246Z,98598.64
2019-03-24T21:17:56.133Z,98595.01
2019-03-24T21:22:01.027Z,98599.56
2019-03-24T21:26:05.918Z,98591.84
2019-03-24T21:30:11.842Z,98595.02
2019-03-24T21:34:16.738Z,98589.51
2019-03-24T21:38:21.629Z,98583.14
2019-03-24T21:42:26.514Z,98579.31
2019-03-24T21:46:31.406Z,98581.12
2019-03-24T21:50:36.291Z,98579.94
2019-03-24T21:54:41.182Z,98577.84
2019-03-24T21:58:46.069Z,98574.44
2019-03-24T22:02:50.959Z,98570.22
2019-03-24T22:06:55.849Z,98570.28
2019-03-24T22:11:00.727Z,98575.98
2019-03-24T22:15:09.303Z,98569.96
2019-03-24T22:19:14.189Z,98566.13
2019-03-24T22:23:20.050Z,98567.87
2019-03-24T22:27:24.943Z,98571.39
2019-03-24T22:31:29.825Z,98574.00
2019-03-24T22:35:34.720Z,98571.88
2019-03-24T22:39:39.621Z,98566.20
2019-03-24T22:43:44.507Z,98563.21
2019-03-24T22:47:49.391Z,98562.39
2019-03-24T22:52:06.598Z,98559.81
2019-03-24T22:56:01.820Z,98562.45
2019-03-24T23:00:15.764Z,98555.55
2019-03-24T23:04:22.258Z,98546.89
2019-03-24T23:08:27.157Z,98554.30
2019-03-24T23:12:32.042Z,98553.45
2019-03-24T23:16:36.939Z,98555.66
2019-03-24T23:20:41.827Z,98553.11
2019-03-24T23:24:46.717Z,98548.41
2019-03-24T23:28:51.609Z,98545.91
2019-03-24T23:32:56.495Z,98543.36
2019-03-24T23:37:01.390Z,98531.78
2019-03-24T23:41:06.290Z,98520.58
2019-03-24T23:45:11.826Z,98517.98
2019-03-24T23:49:16.717Z,98513.66
2019-03-24T23:53:21.600Z,98513.27
2019-03-24T23:57:26.485Z,98507.64
